Time;durP1;ratioP1;P1;durP2;ratioP2;P2;SDS_P1;SDS_P2;PMS_P1;PMS_P2;Temp;Humidity;BMP_temperature;BMP_pressure;BME280_temperature;BME280_humidity;BME280_pressure;Samples;Min_cycle;Max_cycle;Signal;HPM_P1;HPM_P2
2021/05/13 00:00:50;;;;;;;3.67;1.77;;;;;;;8.31;73.98;94944.03;5055719;28;20181;-79
2021/05/13 00:03:15;;;;;;;3.37;1.90;;;;;;;8.27;73.66;94945.28;5072117;28;20627;-78
2021/05/13 00:05:40;;;;;;;4.07;1.83;;;;;;;8.27;73.57;94940.13;5072665;28;20185;-78
2021/05/13 00:08:06;;;;;;;4.07;1.90;;;;;;;8.24;73.98;94938.63;5057986;28;20178;-80
2021/05/13 00:10:32;;;;;;;2.63;1.67;;;;;;;8.23;73.65;94934.44;5053875;28;20272;-79
2021/05/13 00:13:00;;;;;;;2.93;1.70;;;;;;;8.21;73.62;94942.31;5041784;28;20223;-78
2021/05/13 00:15:29;;;;;;;3.37;1.63;;;;;;;8.21;73.45;94937.13;5062849;28;20174;-79
2021/05/13 00:17:55;;;;;;;2.73;1.43;;;;;;;8.25;73.15;94929.91;5035739;28;20243;-79
2021/05/13 00:20:30;;;;;;;2.63;1.70;;;;;;;8.20;73.35;94920.00;5036825;28;20614;-80
2021/05/13 00:22:55;;;;;;;3.87;1.77;;;;;;;8.20;73.17;94922.59;5056782;28;20204;-79
2021/05/13 00:25:21;;;;;;;3.53;1.43;;;;;;;8.18;73.04;94921.13;5063901;28;20185;-78
2021/05/13 00:27:47;;;;;;;2.63;1.50;;;;;;;8.14;72.90;94920.63;5036753;28;20307;-79
2021/05/13 00:30:13;;;;;;;2.07;1.50;;;;;;;8.15;73.21;94916.25;5035489;28;20193;-79
2021/05/13 00:32:40;;;;;;;4.63;1.47;;;;;;;8.16;72.40;94916.09;5052959;28;20269;-80
2021/05/13 00:35:07;;;;;;;2.57;1.43;;;;;;;8.22;72.37;94912.13;5053524;28;20279;-80
2021/05/13 00:37:32;;;;;;;2.47;1.47;;;;;;;8.15;72.46;94916.25;5054892;28;20213;-79
2021/05/13 00:39:57;;;;;;;3.13;1.70;;;;;;;8.15;72.54;94909.31;5060376;28;20189;-79
2021/05/13 00:42:22;;;;;;;3.97;1.40;;;;;;;8.16;72.69;94910.94;5059117;28;20197;-78
2021/05/13 00:44:48;;;;;;;2.00;1.33;;;;;;;8.12;72.40;94909.59;5071184;28;20620;-79
2021/05/13 00:47:13;;;;;;;5.43;1.43;;;;;;;8.06;72.51;94905.03;5035226;28;20225;-78
2021/05/13 00:49:40;;;;;;;2.73;1.43;;;;;;;8.00;72.61;94897.84;5035812;28;20182;-79
2021/05/13 00:52:09;;;;;;;3.67;1.47;;;;;;;8.04;72.37;94904.38;5055065;28;20218;-79
2021/05/13 00:54:42;;;;;;;2.80;1.37;;;;;;;8.05;72.42;94894.84;5063699;28;20185;-79
2021/05/13 00:57:07;;;;;;;1.93;1.33;;;;;;;8.00;72.50;94902.22;5071179;28;20776;-79
2021/05/13 00:59:36;;;;;;;1.53;1.10;;;;;;;8.03;71.41;94902.72;5069931;28;20216;-80
2021/05/13 01:02:01;;;;;;;5.97;1.50;;;;;;;8.11;70.20;94896.81;5047439;28;20208;-79
2021/05/13 01:04:26;;;;;;;3.07;1.57;;;;;;;8.14;70.39;94894.75;5034586;28;20543;-79
2021/05/13 01:06:52;;;;;;;4.23;1.80;;;;;;;8.10;70.32;94887.41;5036000;28;20224;-79
2021/05/13 01:09:22;;;;;;;1.53;1.20;;;;;;;8.11;70.35;94894.22;5052338;28;20185;-79
2021/05/13 01:11:52;;;;;;;4.17;1.37;;;;;;;8.14;69.71;94894.75;5069398;28;20204;-79
2021/05/13 01:14:29;;;;;;;3.30;1.27;;;;;;;8.08;70.16;94894.53;5037807;28;20169;-79
2021/05/13 01:19:33;;;;;;;3.13;1.67;;;;;;;7.99;70.76;94898.81;5069745;28;20192;-79
2021/05/13 01:21:58;;;;;;;4.90;1.60;;;;;;;7.94;71.31;94894.06;5036734;28;20208;-79
2021/05/13 01:24:24;;;;;;;2.20;1.30;;;;;;;7.82;71.63;94884.91;5060530;28;20322;-80
2021/05/13 01:26:50;;;;;;;1.90;1.67;;;;;;;7.73;72.14;94890.97;5053872;28;20250;-79
2021/05/13 01:29:26;;;;;;;5.37;1.50;;;;;;;7.66;72.00;94889.91;5052106;28;20535;-79
2021/05/13 01:31:53;;;;;;;3.13;2.10;;;;;;;7.71;72.13;94892.88;5049468;28;20625;-79
2021/05/13 01:34:18;;;;;;;1.50;1.40;;;;;;;7.62;72.27;94884.22;5034484;28;20699;-79
2021/05/13 01:36:44;;;;;;;3.13;1.30;;;;;;;7.53;72.42;94889.47;5035624;28;20181;-79
2021/05/13 01:39:11;;;;;;;1.60;1.40;;;;;;;7.50;72.28;94887.97;5050918;28;20189;-79
2021/05/13 01:41:37;;;;;;;2.37;1.20;;;;;;;7.47;72.80;94888.25;5041267;28;20225;-79
2021/05/13 01:44:03;;;;;;;1.80;1.40;;;;;;;7.43;72.84;94886.94;5055955;28;20808;-80
2021/05/13 01:46:28;;;;;;;5.87;1.63;;;;;;;7.33;73.34;94886.16;5053278;28;20303;-80
2021/05/13 01:48:55;;;;;;;2.77;1.37;;;;;;;7.30;73.30;94889.03;5069342;28;20279;-79
2021/05/13 01:51:20;;;;;;;3.50;1.40;;;;;;;7.26;73.19;94885.94;5047276;28;20574;-80
2021/05/13 01:53:46;;;;;;;2.00;1.30;;;;;;;7.19;73.40;94886.63;5052250;28;20188;-79
2021/05/13 01:56:12;;;;;;;2.80;1.20;;;;;;;7.17;73.51;94893.72;5051955;28;20661;-79
2021/05/13 01:58:38;;;;;;;2.23;1.37;;;;;;;7.12;73.92;94880.41;5050791;28;20209;-79
2021/05/13 02:01:05;;;;;;;2.63;1.17;;;;;;;7.06;73.99;94887.75;5069849;28;20227;-79
2021/05/13 02:03:30;;;;;;;4.63;1.47;;;;;;;7.03;73.74;94880.31;5068959;28;20189;-79
2021/05/13 02:05:55;;;;;;;2.93;1.50;;;;;;;6.98;73.87;94884.25;5053661;28;20187;-79
2021/05/13 02:08:21;;;;;;;2.23;2.00;;;;;;;6.96;73.69;94881.81;5056880;28;20585;-80
2021/05/13 02:10:46;;;;;;;2.73;1.90;;;;;;;6.94;73.53;94882.94;5033520;28;20185;-79
2021/05/13 02:13:12;;;;;;;3.73;1.83;;;;;;;6.88;73.76;94886.88;5051606;28;20548;-79
2021/05/13 02:15:37;;;;;;;2.97;1.23;;;;;;;6.88;73.86;94883.50;5057383;28;20192;-79
2021/05/13 02:18:03;;;;;;;3.97;1.37;;;;;;;6.87;73.47;94893.00;5053076;28;20204;-79
2021/05/13 02:20:28;;;;;;;3.73;1.53;;;;;;;6.89;73.85;94880.78;5068700;28;20271;-79
2021/05/13 02:22:55;;;;;;;1.50;1.40;;;;;;;6.91;73.90;94884.03;5069564;28;20193;-79
2021/05/13 02:25:20;;;;;;;3.93;1.37;;;;;;;6.89;73.85;94877.38;5050720;28;20181;-79
2021/05/13 02:27:45;;;;;;;2.13;1.40;;;;;;;6.88;73.90;94873.16;5052943;28;20182;-79
2021/05/13 02:30:13;;;;;;;2.60;1.20;;;;;;;6.84;74.01;94872.66;5061025;28;20181;-79
2021/05/13 02:32:38;;;;;;;2.93;1.27;;;;;;;6.81;74.72;94883.25;5033719;28;20200;-79
2021/05/13 02:35:08;;;;;;;6.73;1.60;;;;;;;6.73;76.06;94867.66;5046470;28;20181;-80
2021/05/13 02:37:33;;;;;;;2.60;1.53;;;;;;;6.65;76.01;94867.56;5059761;28;20252;-79
2021/05/13 02:39:59;;;;;;;3.10;1.40;;;;;;;6.55;76.75;94864.19;5053882;28;20182;-79
2021/05/13 02:42:24;;;;;;;3.17;1.90;;;;;;;6.52;76.70;94863.50;5073001;28;20680;-79
2021/05/13 02:44:49;;;;;;;1.70;1.40;;;;;;;6.51;76.69;94861.88;5072323;28;20181;-79
2021/05/13 02:47:15;;;;;;;1.93;1.50;;;;;;;6.51;76.66;94855.91;5056804;28;20179;-80
2021/05/13 02:49:40;;;;;;;4.03;1.33;;;;;;;6.49;76.43;94858.63;5061919;28;20177;-79
2021/05/13 02:52:06;;;;;;;2.93;1.80;;;;;;;6.45;76.39;94854.72;5036954;28;20264;-79
2021/05/13 02:54:31;;;;;;;4.10;1.50;;;;;;;6.43;76.32;94848.84;5054942;28;20174;-79
2021/05/13 02:56:56;;;;;;;2.57;1.33;;;;;;;6.44;76.11;94845.31;5059678;28;20177;-80
2021/05/13 02:59:28;;;;;;;4.83;1.40;;;;;;;6.39;75.99;94849.28;5056887;28;20184;-79
2021/05/13 03:01:54;;;;;;;3.33;1.67;;;;;;;6.38;75.82;94851.06;5073091;28;20189;-79
2021/05/13 03:04:19;;;;;;;2.03;1.40;;;;;;;6.35;75.94;94846.16;5072482;28;20656;-78
2021/05/13 03:06:44;;;;;;;6.10;1.60;;;;;;;6.32;75.90;94848.19;5053728;28;20180;-79
2021/05/13 03:09:10;;;;;;;1.37;1.27;;;;;;;6.25;76.32;94845.34;5054767;28;20223;-78
2021/05/13 03:11:35;;;;;;;1.90;1.60;;;;;;;6.20;76.26;94847.56;5036752;28;20205;-78
2021/05/13 03:14:02;;;;;;;1.80;1.40;;;;;;;6.14;76.22;94853.25;5067441;28;20169;-78
2021/05/13 03:16:28;;;;;;;1.60;1.27;;;;;;;6.07;76.51;94852.16;5071707;28;20192;-80
2021/05/13 03:18:56;;;;;;;2.73;1.47;;;;;;;6.03;76.99;94853.41;5055671;28;20197;-78
2021/05/13 03:21:58;;;;;;;3.70;1.60;;;;;;;5.95;76.86;94856.66;5064781;28;20186;-78
2021/05/13 03:24:27;;;;;;;2.93;2.10;;;;;;;5.89;76.79;94852.81;5051576;28;20246;-77
2021/05/13 03:29:18;;;;;;;2.77;1.90;;;;;;;5.81;77.18;94849.28;5060077;28;20663;-78
2021/05/13 03:31:44;;;;;;;2.20;1.80;;;;;;;5.80;77.45;94847.66;5073696;28;20806;-78
2021/05/13 03:34:09;;;;;;;2.33;1.97;;;;;;;5.77;77.48;94847.94;5054683;28;20187;-78
2021/05/13 03:36:34;;;;;;;1.73;1.37;;;;;;;5.76;77.56;94847.13;5055404;28;20185;-78
2021/05/13 03:39:03;;;;;;;2.00;1.53;;;;;;;5.75;77.35;94850.66;5036555;28;20194;-79
2021/05/13 03:41:28;;;;;;;4.10;1.57;;;;;;;5.73;77.44;94838.84;5054120;28;20190;-77
2021/05/13 03:43:53;;;;;;;3.03;1.30;;;;;;;5.75;77.75;94842.94;5052976;28;20193;-78
2021/05/13 03:46:19;;;;;;;1.43;1.33;;;;;;;5.81;77.49;94842.38;5050332;28;20181;-78
2021/05/13 03:48:44;;;;;;;3.33;1.47;;;;;;;5.82;77.37;94833.69;5053665;28;20646;-78
2021/05/13 03:51:09;;;;;;;2.83;1.50;;;;;;;5.85;76.90;94830.88;5071685;28;20287;-78
2021/05/13 03:53:35;;;;;;;3.83;1.60;;;;;;;5.85;76.63;94837.78;5047930;28;20182;-78
2021/05/13 03:56:00;;;;;;;3.30;1.50;;;;;;;5.87;76.84;94834.13;5035933;28;20646;-79
2021/05/13 03:58:32;;;;;;;2.47;1.20;;;;;;;5.88;76.58;94828.00;5053793;28;20263;-79
2021/05/13 04:03:23;;;;;;;2.80;1.30;;;;;;;6.07;76.26;94829.78;5073692;28;20205;-79
2021/05/13 04:05:48;;;;;;;2.93;1.40;;;;;;;6.08;76.19;94830.59;5063920;28;20676;-79
2021/05/13 04:08:14;;;;;;;2.60;1.30;;;;;;;6.13;76.55;94828.44;5052834;28;20186;-79
2021/05/13 04:10:40;;;;;;;3.33;1.50;;;;;;;6.15;76.47;94827.31;5036981;28;20235;-78
2021/05/13 04:13:08;;;;;;;3.40;1.40;;;;;;;6.21;76.50;94836.28;5054642;28;20189;-79
2021/05/13 04:15:34;;;;;;;2.37;1.50;;;;;;;6.25;76.68;94828.13;5055846;28;20537;-79
2021/05/13 04:17:59;;;;;;;3.10;1.87;;;;;;;6.35;76.51;94824.72;5070647;28;20212;-79
2021/05/13 04:20:24;;;;;;;3.53;1.73;;;;;;;6.49;76.32;94824.28;5071983;28;20383;-79
2021/05/13 04:22:50;;;;;;;4.17;1.63;;;;;;;6.62;76.05;94824.75;5057259;28;20567;-79
2021/05/13 04:25:15;;;;;;;3.00;1.83;;;;;;;6.78;75.38;94824.16;5036785;28;20196;-78
2021/05/13 04:27:40;;;;;;;3.73;1.60;;;;;;;7.00;75.07;94823.81;5052595;28;20190;-79
2021/05/13 04:30:06;;;;;;;1.40;1.23;;;;;;;7.14;74.38;94821.69;5044633;28;20249;-79
2021/05/13 04:32:32;;;;;;;14.23;1.67;;;;;;;7.29;73.84;94823.66;5071674;28;20205;-79
2021/05/13 04:34:57;;;;;;;2.77;1.30;;;;;;;7.34;74.04;94825.81;5042277;28;20193;-79
2021/05/13 04:37:22;;;;;;;2.33;1.20;;;;;;;7.49;73.82;94815.78;5038681;28;20299;-80
2021/05/13 04:39:49;;;;;;;4.80;1.43;;;;;;;7.97;72.94;94818.00;5071903;28;20192;-80
2021/05/13 04:42:14;;;;;;;3.03;1.70;;;;;;;9.61;68.66;94817.88;5053459;28;20254;-79
2021/05/13 04:44:40;;;;;;;3.93;1.70;;;;;;;11.62;61.50;94811.66;5071707;28;20192;-78
2021/05/13 04:49:50;;;;;;;2.80;1.40;;;;;;;13.12;53.75;94819.66;5053605;28;20279;-78
2021/05/13 04:52:16;;;;;;;2.43;1.13;;;;;;;13.80;50.73;94811.47;5035224;28;20209;-78
2021/05/13 04:54:42;;;;;;;2.57;1.00;;;;;;;14.67;48.38;94816.50;5048081;28;20596;-79
2021/05/13 04:57:07;;;;;;;3.75;0.90;;;;;;;16.33;45.31;94822.38;5071448;28;20204;-79
2021/05/13 04:59:33;;;;;;;2.38;1.52;;;;;;;17.17;42.92;94830.44;5069930;28;20188;-79
2021/05/13 05:01:58;;;;;;;1.80;1.02;;;;;;;17.66;40.84;94825.63;5064226;28;20201;-79
2021/05/13 05:04:23;;;;;;;2.30;1.00;;;;;;;17.90;40.96;94821.50;5052387;28;20560;-80
2021/05/13 05:06:48;;;;;;;2.08;1.00;;;;;;;17.61;40.78;94826.25;5036710;28;20648;-79
2021/05/13 05:09:14;;;;;;;2.65;1.05;;;;;;;17.99;40.44;94817.63;5035675;28;20177;-80
2021/05/13 05:11:39;;;;;;;1.67;0.95;;;;;;;18.11;39.69;94824.63;5070817;28;20208;-80
2021/05/13 05:14:05;;;;;;;2.13;0.80;;;;;;;18.54;38.73;94815.22;5068851;28;20211;-80
2021/05/13 05:16:30;;;;;;;2.33;0.80;;;;;;;18.40;38.78;94819.78;5052955;28;20186;-80
2021/05/13 05:18:55;;;;;;;5.43;0.95;;;;;;;18.50;38.55;94811.41;5035202;28;20677;-80
2021/05/13 05:21:20;;;;;;;2.00;0.80;;;;;;;19.30;38.33;94814.94;5067977;28;20228;-80
2021/05/13 05:23:46;;;;;;;3.00;1.35;;;;;;;19.10;37.42;94815.16;5056722;28;20815;-80
2021/05/13 05:26:11;;;;;;;2.13;0.98;;;;;;;19.45;37.17;94812.75;5064878;28;20177;-79
2021/05/13 05:28:36;;;;;;;1.58;1.35;;;;;;;19.99;35.96;94816.38;5045142;28;20193;-80
2021/05/13 05:31:02;;;;;;;1.98;0.90;;;;;;;20.42;35.33;94818.00;5057329;28;20280;-80
2021/05/13 05:33:27;;;;;;;1.30;0.73;;;;;;;21.32;34.27;94816.94;5070548;28;20185;-80
2021/05/13 05:35:52;;;;;;;3.00;0.90;;;;;;;21.37;33.84;94825.75;5070717;28;20177;-80
2021/05/13 05:38:18;;;;;;;2.67;1.58;;;;;;;21.63;32.67;94813.88;5047730;28;20555;-80
2021/05/13 05:40:44;;;;;;;1.40;1.02;;;;;;;21.99;31.09;94812.72;5051834;28;20197;-80
2021/05/13 05:43:09;;;;;;;3.22;1.00;;;;;;;22.85;29.61;94810.00;5059282;28;20215;-81
2021/05/13 05:45:35;;;;;;;3.65;1.05;;;;;;;24.24;28.31;94808.88;5037688;28;20185;-81
2021/05/13 05:48:00;;;;;;;1.52;0.90;;;;;;;23.74;27.38;94807.25;5071603;28;20169;-79
2021/05/13 05:50:37;;;;;;;3.20;1.33;;;;;;;23.67;27.37;94806.63;5053319;28;20177;-79
2021/05/13 05:53:04;;;;;;;2.58;1.15;;;;;;;24.06;26.19;94815.31;5070189;28;20185;-79
2021/05/13 05:55:30;;;;;;;3.28;1.42;;;;;;;22.83;27.37;94809.41;5035550;28;20212;-79
2021/05/13 05:57:56;;;;;;;4.28;1.10;;;;;;;22.58;27.76;94804.53;5052902;28;20220;-79
2021/05/13 06:00:21;;;;;;;2.22;1.00;;;;;;;23.97;26.14;94807.00;5052234;28;20177;-79
2021/05/13 06:02:47;;;;;;;3.40;0.95;;;;;;;23.91;25.03;94810.63;5067694;28;20193;-79
2021/05/13 06:05:13;;;;;;;4.53;1.10;;;;;;;21.94;27.61;94806.56;5071334;28;20189;-82
2021/05/13 06:07:39;;;;;;;3.00;1.00;;;;;;;21.71;29.05;94800.31;5071903;28;20267;-79
2021/05/13 06:10:07;;;;;;;2.95;0.95;;;;;;;22.17;28.26;94795.88;5054548;28;20206;-79
2021/05/13 06:12:33;;;;;;;2.28;1.02;;;;;;;22.04;29.13;94796.97;5068305;28;20197;-79
2021/05/13 06:14:58;;;;;;;2.22;1.10;;;;;;;21.87;29.02;94805.88;5058875;28;20204;-80
2021/05/13 06:17:23;;;;;;;2.47;1.13;;;;;;;20.88;31.03;94798.81;5074323;28;20192;-80
2021/05/13 06:19:49;;;;;;;4.38;1.08;;;;;;;19.05;34.45;94795.78;5069132;28;20189;-79
2021/05/13 06:22:14;;;;;;;1.83;1.08;;;;;;;20.22;31.57;94799.81;5040001;28;20197;-79
2021/05/13 06:24:39;;;;;;;2.70;0.90;;;;;;;20.37;30.17;94800.19;5058097;28;20350;-80
2021/05/13 06:27:06;;;;;;;3.42;0.93;;;;;;;20.05;31.97;94797.03;5058831;28;20185;-80
2021/05/13 06:29:31;;;;;;;3.63;1.20;;;;;;;19.59;31.81;94796.81;5057590;28;20177;-79
2021/05/13 06:31:57;;;;;;;4.30;1.30;;;;;;;19.96;30.38;94798.34;5043805;28;20258;-80
2021/05/13 06:34:22;;;;;;;4.53;1.15;;;;;;;19.47;31.50;94791.47;5059539;28;20612;-80
2021/05/13 06:36:48;;;;;;;4.20;1.27;;;;;;;20.47;30.12;94799.66;5051720;28;20185;-79
2021/05/13 06:39:13;;;;;;;3.63;1.00;;;;;;;20.15;31.97;94798.31;5074066;28;20726;-79
2021/05/13 06:41:41;;;;;;;2.72;1.20;;;;;;;21.91;29.73;94810.47;5042331;28;20224;-79
2021/05/13 06:44:06;;;;;;;1.77;1.08;;;;;;;22.24;28.85;94798.41;5062207;28;20195;-79
2021/05/13 06:46:32;;;;;;;2.35;0.90;;;;;;;21.53;30.92;94811.03;5072103;28;20668;-79
2021/05/13 06:48:57;;;;;;;3.42;1.13;;;;;;;21.70;30.68;94811.91;5041305;28;20235;-79
2021/05/13 06:51:22;;;;;;;3.83;1.10;;;;;;;22.08;29.44;94810.53;5041742;28;20664;-79
2021/05/13 06:53:48;;;;;;;3.22;1.10;;;;;;;23.29;27.92;94816.19;5072313;28;20220;-79
2021/05/13 06:56:14;;;;;;;1.63;0.95;;;;;;;22.68;29.88;94817.91;5073427;28;20190;-79
2021/05/13 06:58:40;;;;;;;4.75;1.08;;;;;;;23.14;28.27;94818.63;5059337;28;20213;-79
2021/05/13 07:01:05;;;;;;;2.53;0.85;;;;;;;20.19;31.83;94817.91;5054639;28;20228;-78
2021/05/13 07:03:30;;;;;;;2.25;0.98;;;;;;;19.28;33.31;94806.47;5055314;28;20231;-79
2021/05/13 07:05:56;;;;;;;2.67;1.10;;;;;;;20.17;32.13;94812.06;5061243;28;20671;-79
2021/05/13 07:08:21;;;;;;;0.90;0.80;;;;;;;21.28;30.56;94815.78;5061954;28;20177;-79
2021/05/13 07:10:47;;;;;;;2.78;0.82;;;;;;;21.96;30.32;94807.91;5052863;28;20181;-79
2021/05/13 07:13:12;;;;;;;3.55;0.98;;;;;;;22.61;28.09;94809.31;5071855;28;20323;-79
2021/05/13 07:15:37;;;;;;;2.35;0.85;;;;;;;22.19;28.81;94804.41;5061906;28;20225;-78
2021/05/13 07:18:02;;;;;;;3.03;1.27;;;;;;;21.46;29.84;94807.72;5052568;28;20738;-78
2021/05/13 07:20:29;;;;;;;4.05;0.95;;;;;;;22.12;29.30;94803.75;5053230;28;20184;-79
2021/05/13 07:22:54;;;;;;;2.55;0.90;;;;;;;21.57;29.59;94809.56;5048645;28;20202;-79
2021/05/13 07:25:20;;;;;;;2.15;1.00;;;;;;;21.35;30.63;94805.91;5060874;28;20645;-79
2021/05/13 07:27:46;;;;;;;1.83;1.02;;;;;;;22.38;28.39;94809.47;5054261;28;20182;-79
2021/05/13 07:30:12;;;;;;;2.47;1.10;;;;;;;19.98;31.30;94801.59;5053329;28;20193;-78
2021/05/13 07:32:38;;;;;;;2.35;1.42;;;;;;;19.97;32.28;94794.72;5053091;28;20233;-79
2021/05/13 07:35:04;;;;;;;3.63;1.40;;;;;;;19.93;32.21;94798.00;5055539;28;20209;-78
2021/05/13 07:37:29;;;;;;;2.03;1.33;;;;;;;19.96;33.28;94792.28;5072598;28;20217;-78
2021/05/13 07:39:54;;;;;;;1.92;0.90;;;;;;;18.87;33.46;94793.94;5059314;28;20264;-79
2021/05/13 07:42:20;;;;;;;6.90;1.20;;;;;;;18.26;33.45;94792.78;5062608;28;20690;-78
2021/05/13 07:44:45;;;;;;;4.22;1.10;;;;;;;17.40;36.38;94792.41;5072831;28;20288;-78
2021/05/13 07:47:11;;;;;;;1.80;0.80;;;;;;;17.97;37.24;94788.94;5053345;28;20181;-77
2021/05/13 07:49:36;;;;;;;1.08;0.80;;;;;;;18.19;37.02;94783.31;5060650;28;20178;-78
2021/05/13 07:52:02;;;;;;;2.10;0.90;;;;;;;17.66;37.17;94783.59;5052140;28;20228;-77
2021/05/13 07:54:28;;;;;;;2.78;1.20;;;;;;;17.51;37.10;94794.41;5051217;28;20605;-78
2021/05/13 07:56:53;;;;;;;4.50;1.02;;;;;;;18.35;35.95;94791.50;5069033;28;20178;-79
2021/05/13 07:59:19;;;;;;;1.58;0.82;;;;;;;17.79;37.49;94792.28;5036745;28;20231;-78
2021/05/13 08:01:45;;;;;;;3.25;0.90;;;;;;;17.66;39.06;94787.03;5053328;28;20197;-79
2021/05/13 08:04:10;;;;;;;3.30;1.00;;;;;;;17.87;38.90;94793.03;5066659;28;20751;-79
2021/05/13 08:06:35;;;;;;;2.35;0.98;;;;;;;17.89;36.96;94788.38;5035945;28;20235;-77
2021/05/13 08:09:01;;;;;;;2.72;1.00;;;;;;;17.67;37.96;94783.44;5053748;28;20178;-79
2021/05/13 08:11:26;;;;;;;2.75;1.40;;;;;;;17.71;38.83;94779.38;5039850;28;20201;-79
2021/05/13 08:13:51;;;;;;;2.65;1.10;;;;;;;17.14;38.53;94781.00;5039163;28;20720;-79
2021/05/13 08:16:17;;;;;;;2.28;0.90;;;;;;;16.51;38.95;94780.66;5073091;28;20176;-79
2021/05/13 08:18:42;;;;;;;3.72;1.08;;;;;;;16.27;38.96;94774.25;5072853;28;20205;-80
2021/05/13 08:21:07;;;;;;;5.03;0.90;;;;;;;16.15;38.27;94771.41;5072051;28;20205;-79
2021/05/13 08:23:33;;;;;;;4.78;1.10;;;;;;;15.63;40.01;94772.09;5038721;28;20212;-79
2021/05/13 08:25:58;;;;;;;2.88;0.90;;;;;;;15.33;41.05;94776.00;5051349;28;20620;-78
2021/05/13 08:28:24;;;;;;;6.38;1.10;;;;;;;15.79;43.68;94771.75;5037258;28;20182;-80
2021/05/13 08:30:49;;;;;;;2.30;1.13;;;;;;;15.48;40.99;94767.03;5070659;28;20189;-79
2021/05/13 08:33:15;;;;;;;4.13;1.00;;;;;;;14.70;42.06;94770.88;5058943;28;20194;-79
2021/05/13 08:35:40;;;;;;;3.80;1.10;;;;;;;13.77;44.46;94764.88;5062002;28;20238;-79
2021/05/13 08:38:06;;;;;;;4.50;1.07;;;;;;;14.65;45.25;94760.19;5070507;28;20205;-78
2021/05/13 08:40:31;;;;;;;4.53;1.20;;;;;;;14.51;43.36;94764.53;5071828;28;20184;-78
2021/05/13 08:42:57;;;;;;;2.30;0.90;;;;;;;14.33;42.23;94762.34;5064973;28;20316;-78
2021/05/13 08:45:23;;;;;;;2.03;1.10;;;;;;;14.06;44.43;94765.75;5057510;28;20197;-79
2021/05/13 08:47:48;;;;;;;3.77;1.17;;;;;;;14.58;43.87;94759.34;5044730;28;20223;-79
2021/05/13 08:50:15;;;;;;;5.00;1.03;;;;;;;14.61;41.95;94757.16;5066477;28;20178;-78
2021/05/13 08:52:40;;;;;;;4.03;1.13;;;;;;;14.97;42.30;94750.91;5051158;28;20217;-77
2021/05/13 08:55:06;;;;;;;2.43;1.07;;;;;;;15.22;42.40;94756.47;5062170;28;20306;-80
2021/05/13 08:57:32;;;;;;;4.03;1.07;;;;;;;15.51;41.16;94755.34;5053720;28;20756;-80
2021/05/13 08:59:58;;;;;;;2.73;0.93;;;;;;;15.35;41.78;94766.16;5068759;28;20265;-80
2021/05/13 09:02:25;;;;;;;3.30;1.13;;;;;;;14.89;42.35;94762.34;5035736;28;20300;-80
2021/05/13 09:04:54;;;;;;;4.23;0.97;;;;;;;15.11;41.23;94757.84;5052777;28;20278;-79
2021/05/13 09:07:22;;;;;;;5.50;1.50;;;;;;;14.74;42.71;94751.97;5048259;28;20182;-79
2021/05/13 09:09:54;;;;;;;3.43;1.10;;;;;;;14.87;43.21;94753.88;5069156;28;20193;-80
2021/05/13 09:12:20;;;;;;;1.50;1.00;;;;;;;15.11;43.87;94762.25;5056255;28;20320;-81
2021/05/13 09:14:55;;;;;;;2.43;1.10;;;;;;;14.56;45.18;94758.72;5054347;28;20331;-79
2021/05/13 09:17:24;;;;;;;8.10;1.30;;;;;;;14.76;44.76;94756.25;5071722;28;20222;-80
2021/05/13 09:19:50;;;;;;;3.10;1.00;;;;;;;14.51;46.04;94756.69;5053417;28;20193;-80
2021/05/13 09:22:21;;;;;;;2.50;0.90;;;;;;;14.22;47.35;94760.22;5060055;28;20303;-79
2021/05/13 09:24:47;;;;;;;2.37;1.07;;;;;;;14.01;48.98;94755.84;5050650;28;20563;-78
2021/05/13 09:27:19;;;;;;;2.43;1.23;;;;;;;13.88;51.49;94759.16;5061412;28;20188;-78
2021/05/13 09:29:45;;;;;;;4.73;1.50;;;;;;;13.67;53.53;94761.75;5037497;28;20186;-78
2021/05/13 09:32:19;;;;;;;2.37;1.40;;;;;;;13.49;55.32;94758.75;5066347;28;20209;-79
2021/05/13 09:34:45;;;;;;;3.13;1.33;;;;;;;13.52;56.65;94761.00;5060595;28;20281;-79
2021/05/13 09:37:10;;;;;;;4.67;1.47;;;;;;;13.59;55.79;94754.84;5065495;28;20626;-77
2021/05/13 09:39:36;;;;;;;7.03;1.70;;;;;;;13.59;55.78;94754.84;5053947;28;20210;-78
2021/05/13 09:42:03;;;;;;;3.27;1.53;;;;;;;13.76;55.93;94750.19;5053796;28;20276;-78
2021/05/13 09:44:34;;;;;;;5.30;1.03;;;;;;;14.02;55.21;94751.44;5056207;28;20701;-79
2021/05/13 09:47:32;;;;;;;2.57;1.37;;;;;;;14.37;54.29;94758.34;5054343;28;20177;-78
2021/05/13 09:49:59;;;;;;;2.63;1.40;;;;;;;14.76;51.46;94749.22;4993975;28;20674;-79
2021/05/13 09:52:45;;;;;;;6.03;1.50;;;;;;;15.04;50.61;94743.09;4977306;28;20942;-79
2021/05/13 09:55:16;;;;;;;4.93;1.53;;;;;;;15.28;46.62;94742.59;4994170;28;20183;-79
2021/05/13 09:57:50;;;;;;;3.63;1.37;;;;;;;15.20;47.71;94748.00;5010064;28;20207;-79
2021/05/13 10:00:41;;;;;;;2.30;1.40;;;;;;;15.41;48.71;94741.84;5010202;28;20244;-80
2021/05/13 10:03:18;;;;;;;2.97;1.47;;;;;;;14.99;49.04;94741.88;5009650;28;20206;-79
2021/05/13 10:05:48;;;;;;;2.67;1.60;;;;;;;14.17;48.64;94741.72;4984015;28;20199;-78
2021/05/13 10:08:17;;;;;;;3.93;1.50;;;;;;;13.80;50.50;94751.47;4994126;28;20186;-78
2021/05/13 10:10:42;;;;;;;2.93;1.30;;;;;;;14.07;51.89;94743.88;4993209;28;20197;-79
2021/05/13 10:13:08;;;;;;;3.90;1.70;;;;;;;13.85;52.39;94743.88;4977818;28;20278;-79
2021/05/13 10:15:37;;;;;;;3.90;1.60;;;;;;;13.76;53.75;94755.41;4977691;28;20183;-78
2021/05/13 10:18:08;;;;;;;5.00;1.60;;;;;;;13.86;56.19;94753.31;4993492;28;20210;-79
2021/05/13 10:20:35;;;;;;;3.80;2.00;;;;;;;13.63;56.44;94750.09;4976787;28;20724;-78
2021/05/13 10:23:00;;;;;;;1.83;1.50;;;;;;;13.66;56.39;94754.13;4993498;28;20229;-79
2021/05/13 10:25:28;;;;;;;4.63;1.90;;;;;;;13.46;55.23;94749.50;5013993;28;20642;-79
2021/05/13 10:27:58;;;;;;;3.40;1.83;;;;;;;13.72;55.62;94758.59;5051250;28;20185;-79
2021/05/13 10:30:25;;;;;;;4.87;1.80;;;;;;;13.68;55.66;94752.94;5037170;28;20201;-79
2021/05/13 10:33:14;;;;;;;3.23;1.50;;;;;;;13.95;54.50;94750.56;5045973;28;20580;-79
2021/05/13 10:35:58;;;;;;;4.07;1.87;;;;;;;14.01;54.75;94755.06;5048984;28;20189;-79
2021/05/13 10:38:36;;;;;;;3.97;1.37;;;;;;;13.00;58.74;94764.59;5054051;28;20631;-77
2021/05/13 10:41:27;;;;;;;4.43;1.20;;;;;;;12.45;60.96;94769.22;5045043;28;20205;-77
2021/05/13 10:43:53;;;;;;;1.90;1.07;;;;;;;12.70;60.11;94769.78;5081955;28;20182;-77
2021/05/13 10:46:29;;;;;;;3.80;1.10;;;;;;;13.05;59.14;94768.25;5057581;28;20189;-77
2021/05/13 10:49:15;;;;;;;2.57;0.93;;;;;;;13.31;57.65;94754.75;5061572;28;20246;-78
2021/05/13 10:51:41;;;;;;;1.67;1.10;;;;;;;13.83;57.73;94760.72;5083548;28;20236;-78
2021/05/13 10:54:07;;;;;;;3.40;1.17;;;;;;;14.24;56.92;94755.66;5059535;28;20196;-79
2021/05/13 10:56:37;;;;;;;5.23;1.10;;;;;;;14.33;54.80;94764.97;5059469;28;20189;-79
2021/05/13 10:59:08;;;;;;;3.33;1.10;;;;;;;13.81;56.12;94762.72;5042791;28;20280;-79
2021/05/13 11:01:47;;;;;;;1.73;0.90;;;;;;;13.52;52.90;94763.63;5064604;28;20204;-79
2021/05/13 11:04:25;;;;;;;2.30;0.87;;;;;;;13.65;51.80;94755.91;5074342;28;20181;-80
2021/05/13 11:06:56;;;;;;;2.77;1.00;;;;;;;13.98;49.41;94745.00;5057335;28;20279;-81
2021/05/13 11:09:37;;;;;;;3.33;1.30;;;;;;;14.18;51.54;94751.19;5040998;28;20197;-79
2021/05/13 11:12:10;;;;;;;1.93;0.77;;;;;;;14.28;51.38;94754.25;5067127;28;20209;-79
2021/05/13 11:15:00;;;;;;;2.20;0.70;;;;;;;14.17;50.87;94752.19;5058988;28;20213;-79
2021/05/13 11:20:18;;;;;;;1.10;0.93;;;;;;;13.93;52.07;94740.31;5055777;28;20724;-79
2021/05/13 11:23:04;;;;;;;2.43;0.87;;;;;;;14.08;53.48;94737.66;5071130;28;20844;-79
2021/05/13 11:25:38;;;;;;;2.50;0.80;;;;;;;14.63;52.97;94736.84;5066167;28;20177;-79
2021/05/13 11:28:26;;;;;;;2.07;0.97;;;;;;;14.39;52.57;94730.22;5070330;28;20176;-79
2021/05/13 11:30:54;;;;;;;2.37;0.80;;;;;;;14.27;51.89;94730.97;5069913;28;20181;-79
2021/05/13 11:33:20;;;;;;;1.17;0.63;;;;;;;13.96;52.17;94733.91;5059664;28;20680;-78
2021/05/13 11:35:45;;;;;;;1.47;0.70;;;;;;;13.57;53.60;94733.38;5073108;28;20193;-78
2021/05/13 11:38:19;;;;;;;2.03;1.00;;;;;;;13.22;54.27;94737.59;5040590;28;20213;-79
2021/05/13 11:40:46;;;;;;;2.77;0.93;;;;;;;13.31;55.11;94744.31;5058204;28;20269;-78
2021/05/13 11:43:25;;;;;;;2.30;0.77;;;;;;;12.81;58.39;94745.09;5066998;28;20621;-78
2021/05/13 11:45:52;;;;;;;3.17;1.00;;;;;;;12.69;60.99;94755.16;5062049;28;20189;-79
2021/05/13 11:48:45;;;;;;;1.87;1.10;;;;;;;12.01;63.62;94763.13;5054448;28;20180;-78
2021/05/13 11:51:13;;;;;;;3.33;1.63;;;;;;;11.33;66.86;94767.31;5082368;28;20704;-78